createdAt,value
2022-08-16T00:00:38.764Z,13.00
2022-08-16T00:05:48.494Z,13.80
2022-08-16T00:10:54.382Z,13.88
2022-08-16T00:21:01.804Z,11.73
2022-08-16T00:26:35.066Z,12.65
2022-08-16T00:31:59.903Z,11.45
2022-08-16T00:36:57.173Z,11.93
2022-08-16T00:42:03.520Z,11.70
2022-08-16T00:47:11.370Z,11.05
2022-08-16T00:52:30.361Z,11.63
2022-08-16T00:57:58.851Z,10.82
2022-08-16T01:03:05.249Z,9.82
2022-08-16T01:08:35.197Z,11.45
2022-08-16T01:13:40.474Z,12.10
2022-08-16T01:18:48.083Z,11.32
2022-08-16T01:24:06.414Z,11.63
2022-08-16T01:29:57.263Z,11.52
2022-08-16T01:35:00.340Z,9.68
2022-08-16T01:40:07.623Z,10.57
2022-08-16T01:45:11.998Z,12.00
2022-08-16T01:50:42.838Z,11.10
2022-08-16T01:55:44.207Z,11.20
2022-08-16T02:00:58.730Z,10.23
2022-08-16T02:06:08.009Z,10.55
2022-08-16T02:11:14.153Z,10.88
2022-08-16T02:16:20.451Z,12.25
2022-08-16T02:21:31.086Z,11.15
2022-08-16T02:26:37.188Z,20.52
2022-08-16T02:37:05.537Z,11.18
2022-08-16T02:42:13.578Z,11.35
2022-08-16T02:47:25.447Z,10.00
2022-08-16T02:52:30.049Z,10.57
2022-08-16T02:57:54.031Z,10.20
2022-08-16T03:03:01.250Z,9.82
2022-08-16T03:08:49.831Z,10.10
2022-08-16T03:13:40.537Z,10.77
2022-08-16T03:18:49.964Z,9.02
2022-08-16T03:23:57.931Z,9.98
2022-08-16T03:29:07.723Z,10.05
2022-08-16T03:34:14.744Z,10.93
2022-08-16T03:39:24.179Z,10.75
2022-08-16T03:44:44.238Z,9.80
2022-08-16T03:49:55.590Z,10.60
2022-08-16T03:55:02.942Z,9.88
2022-08-16T04:00:20.433Z,10.93
2022-08-16T04:05:49.101Z,10.90
2022-08-16T04:10:58.929Z,11.25
2022-08-16T04:16:26.586Z,9.75
2022-08-16T04:21:47.208Z,9.65
2022-08-16T04:27:00.902Z,9.65
2022-08-16T04:32:10.071Z,10.73
2022-08-16T04:37:18.051Z,9.98
2022-08-16T04:42:30.466Z,10.70
2022-08-16T04:47:45.006Z,9.45
2022-08-16T04:53:22.190Z,9.85
2022-08-16T04:58:43.670Z,10.07
2022-08-16T05:04:00.808Z,10.85
2022-08-16T05:09:22.880Z,9.82
2022-08-16T05:14:45.459Z,10.48
2022-08-16T05:20:39.552Z,11.32
2022-08-16T05:25:41.024Z,11.43
2022-08-16T05:30:56.299Z,10.60
2022-08-16T05:36:17.993Z,11.68
2022-08-16T05:41:31.572Z,10.30
2022-08-16T05:46:43.757Z,10.80
2022-08-16T05:51:57.750Z,10.52
2022-08-16T05:57:20.699Z,17.23
2022-08-16T06:02:43.058Z,9.52
2022-08-16T06:08:31.896Z,10.32
2022-08-16T06:13:48.658Z,11.30
2022-08-16T06:19:08.082Z,11.00
2022-08-16T06:24:53.594Z,10.77
2022-08-16T06:29:49.926Z,12.57
2022-08-16T06:35:02.458Z,11.40
2022-08-16T06:40:15.968Z,12.90
2022-08-16T06:45:30.698Z,12.68
2022-08-16T06:55:57.581Z,12.52
2022-08-16T07:01:09.585Z,13.50
2022-08-16T07:06:26.786Z,14.88
2022-08-16T07:11:46.111Z,10.40
2022-08-16T07:17:19.982Z,12.18
2022-08-16T07:22:52.469Z,17.42
2022-08-16T07:28:11.823Z,12.25
2022-08-16T07:33:52.409Z,11.65
2022-08-16T07:38:50.533Z,13.52
2022-08-16T07:44:00.604Z,14.93
2022-08-16T07:49:12.880Z,13.73
2022-08-16T07:54:37.902Z,14.68
2022-08-16T07:59:51.971Z,15.43
2022-08-16T08:05:00.039Z,13.20
2022-08-16T08:10:14.077Z,12.95
2022-08-16T08:15:53.128Z,13.93
2022-08-16T08:21:01.175Z,14.88
2022-08-16T08:26:17.415Z,13.32
2022-08-16T08:31:28.279Z,13.55
2022-08-16T08:36:37.651Z,13.52
2022-08-16T08:41:58.628Z,14.35
2022-08-16T08:47:11.606Z,12.80
2022-08-16T08:52:34.755Z,14.70
2022-08-16T08:57:49.063Z,11.43
2022-08-16T09:02:59.431Z,16.60
2022-08-16T09:08:17.360Z,10.88
2022-08-16T09:13:32.854Z,10.23
2022-08-16T09:18:43.094Z,10.43
2022-08-16T09:23:52.893Z,13.93
2022-08-16T09:29:14.616Z,15.85
2022-08-16T09:34:24.141Z,13.10
2022-08-16T09:39:41.052Z,14.40
2022-08-16T09:45:10.885Z,15.27
2022-08-16T09:50:22.713Z,14.85
2022-08-16T09:55:31.284Z,14.02
2022-08-16T10:00:44.453Z,13.65
2022-08-16T10:05:53.969Z,13.90
2022-08-16T10:11:24.633Z,14.82
2022-08-16T10:16:31.968Z,15.30
2022-08-16T10:21:40.390Z,15.45
2022-08-16T10:27:20.843Z,15.38
2022-08-16T10:32:14.904Z,16.35
2022-08-16T10:37:32.728Z,17.63
2022-08-16T10:42:43.591Z,20.40
2022-08-16T10:48:03.178Z,19.30
2022-08-16T10:53:12.568Z,18.13
2022-08-16T10:58:19.647Z,18.25
2022-08-16T11:03:43.090Z,17.92
2022-08-16T11:09:20.996Z,17.02
2022-08-16T11:14:20.749Z,14.15
2022-08-16T11:19:28.347Z,15.50
2022-08-16T11:24:42.477Z,16.10
2022-08-16T11:29:55.107Z,14.13
2022-08-16T11:35:13.593Z,16.58
2022-08-16T11:40:32.283Z,14.27
2022-08-16T11:45:42.470Z,15.52
2022-08-16T11:50:50.129Z,15.43
2022-08-16T11:55:59.524Z,14.30
2022-08-16T12:01:07.966Z,12.35
2022-08-16T12:06:30.645Z,12.30
2022-08-16T12:11:39.421Z,10.05
2022-08-16T12:16:53.593Z,11.52
2022-08-16T12:22:05.881Z,12.32
2022-08-16T12:27:28.768Z,11.32
2022-08-16T12:32:42.141Z,12.02
2022-08-16T12:37:53.381Z,12.25
2022-08-16T12:43:05.716Z,11.35
2022-08-16T12:48:33.156Z,11.43
2022-08-16T12:53:41.303Z,10.43
2022-08-16T12:58:52.183Z,12.13
2022-08-16T13:04:12.156Z,12.82
2022-08-16T13:09:30.875Z,11.68
2022-08-16T13:14:42.046Z,10.65
2022-08-16T13:20:08.178Z,10.95
2022-08-16T13:25:21.238Z,9.77
2022-08-16T13:30:36.864Z,9.88
2022-08-16T13:35:55.737Z,9.73
2022-08-16T13:41:09.347Z,10.05
2022-08-16T13:46:17.576Z,9.50
2022-08-16T13:51:25.561Z,8.98
2022-08-16T13:56:39.994Z,10.00
2022-08-16T14:01:55.367Z,9.15
2022-08-16T14:07:02.820Z,8.98
2022-08-16T14:12:18.078Z,8.38
2022-08-16T14:17:23.731Z,8.90
2022-08-16T14:22:31.695Z,9.10
2022-08-16T14:27:42.369Z,8.93
2022-08-16T14:32:51.145Z,9.60
2022-08-16T14:37:57.175Z,8.63
2022-08-16T14:43:06.933Z,9.02
2022-08-16T14:48:12.486Z,9.40
2022-08-16T14:58:35.101Z,8.23
2022-08-16T15:03:44.501Z,8.43
2022-08-16T15:08:48.700Z,7.40
2022-08-16T15:13:55.045Z,7.82
2022-08-16T15:19:03.471Z,7.43
2022-08-16T15:24:07.399Z,8.45
2022-08-16T15:29:20.967Z,8.32
2022-08-16T15:34:26.535Z,7.43
2022-08-16T15:39:39.359Z,7.63
2022-08-16T15:44:52.225Z,7.50
2022-08-16T15:49:59.058Z,7.80
2022-08-16T15:55:13.056Z,7.45
2022-08-16T16:00:28.470Z,8.90
2022-08-16T16:05:33.654Z,7.28
2022-08-16T16:10:39.441Z,6.70
2022-08-16T16:15:45.968Z,6.43
2022-08-16T16:20:54.177Z,6.57
2022-08-16T16:25:59.226Z,5.85
2022-08-16T16:31:12.173Z,6.35
2022-08-16T16:36:22.246Z,5.82
2022-08-16T16:41:30.626Z,4.60
2022-08-16T16:46:40.899Z,5.90
2022-08-16T16:51:51.343Z,5.53
2022-08-16T16:56:55.877Z,6.90
2022-08-16T17:02:41.821Z,6.78
2022-08-16T17:07:33.570Z,6.55
2022-08-16T17:12:46.784Z,7.72
2022-08-16T17:17:59.775Z,7.78
2022-08-16T17:23:06.953Z,7.75
2022-08-16T17:28:59.113Z,7.25
2022-08-16T17:33:54.587Z,7.53
2022-08-16T17:39:01.905Z,8.23
2022-08-16T17:44:08.758Z,7.22
2022-08-16T17:49:12.594Z,8.90
2022-08-16T17:54:20.568Z,8.18
2022-08-16T17:59:40.544Z,9.70
2022-08-16T18:04:49.560Z,10.43
2022-08-16T18:09:55.398Z,9.85
2022-08-16T18:15:00.204Z,9.77
2022-08-16T18:20:05.951Z,9.18
2022-08-16T18:25:11.302Z,8.98
2022-08-16T18:35:22.451Z,9.15
2022-08-16T18:40:28.792Z,10.93
2022-08-16T18:45:36.639Z,9.52
2022-08-16T18:51:03.130Z,9.32
2022-08-16T18:56:08.557Z,9.30
2022-08-16T19:01:12.174Z,11.10
2022-08-16T19:06:17.087Z,10.02
2022-08-16T19:11:25.698Z,9.95
2022-08-16T19:16:29.363Z,10.23
2022-08-16T19:21:33.047Z,10.50
2022-08-16T19:26:38.776Z,10.95
2022-08-16T19:31:42.628Z,10.65
2022-08-16T19:36:46.340Z,9.70
2022-08-16T19:41:54.263Z,18.98
2022-08-16T19:46:58.997Z,11.18
2022-08-16T19:52:11.356Z,9.68
2022-08-16T19:57:17.743Z,10.45
2022-08-16T20:02:36.403Z,11.43
2022-08-16T20:07:40.463Z,10.90
2022-08-16T20:13:02.200Z,11.30
2022-08-16T20:18:09.547Z,10.70
2022-08-16T20:23:28.469Z,11.32
2022-08-16T20:28:52.583Z,11.88
2022-08-16T20:33:57.305Z,10.88
2022-08-16T20:39:03.728Z,12.07
2022-08-16T20:44:10.237Z,14.25
2022-08-16T20:49:13.999Z,27.55
2022-08-16T20:54:17.715Z,11.82
2022-08-16T20:59:22.934Z,11.35
2022-08-16T21:04:29.173Z,10.65
2022-08-16T21:09:35.027Z,11.95
2022-08-16T21:14:42.991Z,11.40
2022-08-16T21:19:46.962Z,10.02
2022-08-16T21:24:53.859Z,10.68
2022-08-16T21:29:59.414Z,10.30
2022-08-16T21:40:12.602Z,10.63
2022-08-16T21:45:17.996Z,11.35
2022-08-16T21:55:26.482Z,11.70
2022-08-16T22:00:32.226Z,12.02
2022-08-16T22:05:36.689Z,11.63
2022-08-16T22:11:05.093Z,11.23
2022-08-16T22:16:16.958Z,10.55
2022-08-16T22:21:22.319Z,11.20
2022-08-16T22:26:31.329Z,9.15
2022-08-16T22:31:40.440Z,10.40
2022-08-16T22:36:44.997Z,11.43
2022-08-16T22:41:50.578Z,11.48
2022-08-16T22:46:56.728Z,12.05
2022-08-16T22:52:05.937Z,10.63
2022-08-16T22:57:10.062Z,11.63
2022-08-16T23:02:15.375Z,11.48
2022-08-16T23:07:19.293Z,11.95
2022-08-16T23:12:26.265Z,12.70
2022-08-16T23:17:36.202Z,12.10
2022-08-16T23:23:20.765Z,12.75
2022-08-16T23:28:10.959Z,13.90
2022-08-16T23:33:18.871Z,13.90
2022-08-16T23:38:38.400Z,13.10
2022-08-16T23:43:44.086Z,13.77
2022-08-16T23:49:58.907Z,13.32
2022-08-16T23:54:13.480Z,14.13
2022-08-16T23:59:17.501Z,13.63
